Cancún International Airport
MMUN : now visible

Airfield :











YOU CAN JOIN US ON...

 
LOGIN :

Register | Disclaimer

   EN    FR    IT 

 









Legend :    VFR   Marginal VFR   IFR   Intensive IFR   Very Intensive IFR
Visi :
Ceiling :
>= 8 km
>= 3000ft
5 to 8 km
1000 to 3000 ft
1500m to 5 km
500 to 1000 ft
800 to 1500m
200 to 500 ft
< 800m
< 200 ft
Symbols :   Thunderstorms  Fog  Heavy snow  Heavy precipitations  Wind > 20 kt






- Airport Elevation : 20 ft
- IATA code : CUN


MMUN - Cancún International

CURRENT METAR :
  • 231047Z 29006KT 6SM FEW015 17/16 A3008 RMK 8/100 BR

EXPIRED METARs :
  • 230949Z 30007KT 6SM FEW015TCU 17/16 A3009 RMK 8/200
  • 230850Z 31007KT 6SM SCT015TCU 17/16 A3009 RMK SLP191 57021 966 8/200
  • 230745Z 32007KT 6SM BKN015TCU 17/16 A3010 RMK 8/200 -RA E42

TAF AMD TAF MMUN
Valid from the 23 at 07:00 until the 24 at 12:00 UTC


230723Z 2307/2412 33008KT P6SM BKN015 TX26/2320Z TN17/2312Z
TEMPO 2307/2310 6SM -RA BKN015
FM231000 33005KT 6SM HZ BKN015
PROB40 2315/2319 5SM -RA BKN015
FM232000 03012KT P6SM BKN015 BKN080
FM240600 06007KT P6SM SCT015



MET'MAP, your aeronautical weather chart ! - Copyright ORBIFLY December 2007 - Disclaimer

ORBIFLY MET'MAP TEAM :

Programming & Development : Alexandra Zaïnal
Concept & original design : Baudouin d'Aumeries
Assistance for programming : Marc-Olivier Méhu
Technical & hardware support : Manuel Goepfert

Contact : metmap@orbifly.com




SOURCES & CREDITS :

   NOAA       Earth
Advisory